Sitc Xiamen — 3ELU — position and weather

sailwx.info

Track history (hours):
 
Tides and Currents Weather Stations Pressure Air Temp Water Temp Dewpoint Dewpoint Depression Visibility Wind Speed Wind Dir Waves Ship Positions

Sitc Xiamen

Last reported at 2016-Apr-29 01:31 UTC. Time now 2016-Apr-29 01:56 UTC.
Position N 30°03' E 122°36'.

Length 145 m; draft 7 m.

Type: Cargo ship. MMSI: 355090000.

Date/timePositionNaut miles runAvg speedWind from/ knotsBaromVisibWave heightAir tempDewpointWater temp
2016-Apr-29 01:31N 30°03' E 122°36'1212.7
2016-Apr-29 00:33N 29°51' E 122°34'1312.5
2016-Apr-28 23:31N 29°38' E 122°31'1512.6
2016-Apr-28 22:20N 29°24' E 122°28'31613.8
2016-Apr-27 23:32N 24°53' E 119°25'1313.5
2016-Apr-27 22:33N 24°45' E 119°13'1313.3
2016-Apr-27 21:33N 24°37' E 119°02'1313.2
2016-Apr-27 20:33N 24°29' E 118°50'1313.2
2016-Apr-27 19:33N 24°20' E 118°39'1413.6
2016-Apr-27 18:32N 24°12' E 118°27'1514.6
2016-Apr-27 17:33N 24°03' E 118°15'1615.3
2016-Apr-27 16:31N 23°53' E 118°02'21914.6
2016-Apr-27 01:33N 22°11' E 114°32'1714.0
2016-Apr-27 00:19N 22°07' E 114°13'1212.5
2016-Apr-26 23:23N 22°17' E 114°06'4 0.3
2016-Apr-26 08:25N 22°20' E 114°05'  
Track history (hours):
 
Tides and Currents Weather Stations Pressure Air Temp Water Temp Dewpoint Dewpoint Depression Visibility Wind Speed Wind Dir Waves Ship Positions

Sitc Xiamen

Last reported at 2016-Apr-29 01:31 UTC. Time now 2016-Apr-29 01:56 UTC.
Position N 30°03' E 122°36'.

Length 145 m; draft 7 m.

Type: Cargo ship. MMSI: 355090000.

Date/timePositionNaut miles runAvg speedWind from/ knotsBaromVisibWave heightAir tempDewpointWater temp
2016-Apr-29 01:31N 30°03' E 122°36'1212.7
2016-Apr-29 00:33N 29°51' E 122°34'1312.5
2016-Apr-28 23:31N 29°38' E 122°31'1512.6
2016-Apr-28 22:20N 29°24' E 122°28'31613.8
2016-Apr-27 23:32N 24°53' E 119°25'1313.5
2016-Apr-27 22:33N 24°45' E 119°13'1313.3
2016-Apr-27 21:33N 24°37' E 119°02'1313.2
2016-Apr-27 20:33N 24°29' E 118°50'1313.2
2016-Apr-27 19:33N 24°20' E 118°39'1413.6
2016-Apr-27 18:32N 24°12' E 118°27'1514.6
2016-Apr-27 17:33N 24°03' E 118°15'1615.3
2016-Apr-27 16:31N 23°53' E 118°02'21914.6
2016-Apr-27 01:33N 22°11' E 114°32'1714.0
2016-Apr-27 00:19N 22°07' E 114°13'1212.5
2016-Apr-26 23:23N 22°17' E 114°06'4 0.3
2016-Apr-26 08:25N 22°20' E 114°05'  

Dump ship's entire track history